Home   Weather   Portugal   Lisbon   Past weeks
Flag for Portugal

Past Weather in Lisbon, Portugal — Yesterday and Last 2 Weeks

Currently: 64 °F. Passing clouds. (Weather station: Lisbon Portela Airport, Portugal). See more current weather

Past Weather in Lisbon — Graph

°F

Lisbon Temperature Yesterday

Maximum temperature yesterday: 84 °F (at 6:00 pm)
Minimum temperature yesterday: 57 °F (at 7:00 am)
Average temperature yesterday: 70 °F

High & Low Weather Summary for the Past Weeks

 TemperatureHumidityPressure
High84 °F (Apr 13, 6:00 pm)100% (Mar 30, 8:30 am)30.42 "Hg (Mar 30, 8:30 am)
Low45 °F (Mar 31, 7:30 am)30% (Apr 5, 4:30 pm)29.30 "Hg (Mar 30, 8:00 am)
Average61 °F73%30.04 "Hg
* Reported Mar 30 7:00 am — Apr 14 8:00 am, Lisbon. Weather by CustomWeather, © 2024

Note: Actual official high and low records may vary slightly from our data, if they occured in-between our weather recording intervals... More about our weather records

Lisbon Weather History for the Previous 24 Hours

Scroll right to see more
 ConditionsComfort  
Time TempWeatherWind HumidityBarometerVisibility
8:00 am
Sun, Apr 14
63 °FSunny.3 mph73%30.18 "Hg10 mi
7:30 am63 °FPassing clouds.5 mph68%30.18 "HgN/A
7:00 am59 °FSunny.3 mph77%30.18 "Hg10 mi
6:30 am59 °FClear.3 mph82%30.18 "Hg10 mi
6:00 am61 °FPassing clouds.3 mph77%30.18 "HgN/A
5:30 am61 °FClear.5 mph72%30.18 "Hg10 mi
5:00 am64 °FClear.2 mph60%30.18 "Hg10 mi
4:30 am70 °FClear.2 mph46%30.18 "Hg10 mi
4:00 am68 °FClear.2 mph49%30.18 "Hg10 mi
3:30 am68 °FPassing clouds.3 mph53%30.18 "HgN/A
2:30 am70 °FClear.7 mph53%30.21 "Hg10 mi
2:00 am68 °FClear.7 mph56%30.21 "Hg10 mi
1:30 am68 °FClear.7 mph56%30.24 "Hg10 mi
1:00 am70 °FClear.7 mph53%30.24 "Hg10 mi
12:30 am70 °FClear.7 mph57%30.24 "Hg10 mi
12:00 am70 °FClear.6 mph57%30.24 "Hg10 mi
11:30 pm
Sat, Apr 13
72 °FClear.7 mph53%30.24 "Hg10 mi
11:00 pm72 °FClear.9 mph57%30.24 "Hg10 mi
10:30 pm72 °FClear.8 mph57%30.24 "Hg10 mi
10:00 pm72 °FClear.8 mph57%30.24 "Hg10 mi
9:30 pm73 °FClear.9 mph57%30.24 "Hg10 mi
9:00 pm73 °FClear.9 mph57%30.21 "Hg10 mi
8:00 pm75 °FSunny.9 mph57%30.21 "Hg10 mi
7:30 pm77 °FSunny.12 mph54%30.21 "Hg10 mi
7:00 pm82 °FPassing clouds.6 mph37%30.21 "HgN/A
6:30 pm82 °FSunny.7 mph35%30.21 "Hg10 mi
6:00 pm84 °FPassing clouds.7 mph33%30.21 "HgN/A
5:30 pm82 °FSunny.8 mph40%30.24 "Hg10 mi
5:00 pm82 °FPassing clouds.7 mph42%30.24 "HgN/A
4:30 pm82 °FSunny.7 mph40%30.24 "Hg10 mi
4:00 pm82 °FPassing clouds.7 mph40%30.24 "HgN/A
3:30 pm82 °FPassing clouds.7 mph42%30.24 "HgN/A
3:00 pm82 °FPassing clouds.6 mph45%30.27 "HgN/A
2:30 pm81 °FSunny.6 mph48%30.27 "Hg10 mi
2:00 pm79 °FPassing clouds.7 mph51%30.27 "HgN/A
1:30 pm77 °FPassing clouds.7 mph54%30.30 "HgN/A
1:00 pm75 °FPassing clouds.8 mph54%30.30 "HgN/A
12:30 pm73 °FPassing clouds.7 mph53%30.30 "HgN/A
12:00 pm72 °FPassing clouds.6 mph57%30.30 "HgN/A
11:30 am68 °FPassing clouds.7 mph64%30.33 "HgN/A
11:00 am68 °FPassing clouds.6 mph60%30.33 "HgN/A
10:30 am66 °FPassing clouds.7 mph60%30.33 "HgN/A
10:00 am66 °FPassing clouds.7 mph60%30.33 "HgN/A
Weather by CustomWeather, © 2024

See weather overview